This is the latest recevied weather packets stored in our database for station/object KI2K. If no packets are shown the sender has not sent any weather packets the latest 10 day(s).
| Time | Temp. | Humidity | Pressure | Rain* | Wind** | Luminosity | Snow |
|---|---|---|---|---|---|---|---|
| 1777732919 | 10° C | 46% | 1019.2 hPa | 0 mm | - | 668 W/m² | - |
| 1777732615 | 9.44° C | 50% | 1019.1 hPa | 0 mm | - | 666 W/m² | - |
| 1777732313 | 9.44° C | 50% | 1019.1 hPa | 0 mm | - | 632 W/m² | - |
| 1777732009 | 8.89° C | 54% | 1019 hPa | 0 mm | - | 655 W/m² | - |
| 1777731706 | 8.89° C | 51% | 1019.1 hPa | 0 mm | - | 601 W/m² | - |
| 1777731404 | 9.44° C | 52% | 1019 hPa | 0 mm | - | 561 W/m² | - |
| 1777731101 | 9.44° C | 49% | 1019.2 hPa | 0 mm | - | 549 W/m² | - |
| 1777730800 | 8.89° C | 54% | 1019.1 hPa | 0 mm | - | 522 W/m² | - |
| 1777730496 | 8.89° C | 52% | 1019.2 hPa | 0 mm | - | 499 W/m² | - |
| 1777730192 | 8.33° C | 55% | 1019.3 hPa | 0 mm | - | 493 W/m² | - |
| 1777729889 | 8.89° C | 52% | 1019.3 hPa | 0 mm | - | 486 W/m² | - |
| 1777729585 | 8.89° C | 56% | 1019 hPa | 0 mm | - | 458 W/m² | - |
| 1777729282 | 10° C | 56% | 1019.1 hPa | 0 mm | - | 393 W/m² | - |
| 1777728979 | 9.44° C | 59% | 1019.1 hPa | 0 mm | - | 384 W/m² | - |
| 1777728675 | 8.89° C | 57% | 1019 hPa | 0 mm | - | 364 W/m² | - |
| 1777728373 | 8.89° C | 59% | 1018.8 hPa | 0 mm | - | 343 W/m² | - |
| 1777728070 | 8.89° C | 58% | 1019 hPa | 0 mm | - | 316 W/m² | - |
| 1777727766 | 8.33° C | 59% | 1018.8 hPa | 0 mm | - | 313 W/m² | - |
| 1777727464 | 7.78° C | 60% | 1018.5 hPa | 0 mm | - | 296 W/m² | - |
| 1777727161 | 7.78° C | 58% | 1018.7 hPa | 0 mm | - | 281 W/m² | - |
| 1777726859 | 7.78° C | 61% | 1018.6 hPa | 0 mm | - | 246 W/m² | - |
| 1777726555 | 7.22° C | 62% | 1018.6 hPa | 0 mm | - | 200 W/m² | - |
| 1777726252 | 6.67° C | 64% | 1018.5 hPa | 0 mm | - | 116 W/m² | - |
| 1777725949 | 6.67° C | 66% | 1018.7 hPa | 0 mm | - | 160 W/m² | - |
| 1777725646 | 7.22° C | 65% | 1018.7 hPa | 0 mm | - | 120 W/m² | - |
* Rain latest hour (hover to see other rain measurements)
** Current wind speed in m/s (hover to see current wind gust speed)